Time;durP1;ratioP1;P1;durP2;ratioP2;P2;SDS_P1;SDS_P2;PMS_P1;PMS_P2;Temp;Humidity;BMP_temperature;BMP_pressure;BME280_temperature;BME280_humidity;BME280_pressure;Samples;Min_cycle;Max_cycle;Signal;HPM_P1;HPM_P2
2022/09/06 00:00:23;;;;;;;0.80;0.80;;;;;;;;;;5111021;28;20231;-77
2022/09/06 00:02:50;;;;;;;1.00;1.00;;;;;;;;;;5110870;28;20568;-77
2022/09/06 00:05:17;;;;;;;1.00;1.00;;;;;;;;;;5110644;28;20206;-77
2022/09/06 00:07:44;;;;;;;1.03;1.00;;;;;;;;;;5110897;28;20233;-77
2022/09/06 00:10:10;;;;;;;0.87;0.87;;;;;;;;;;5110657;28;20199;-77
2022/09/06 00:12:37;;;;;;;1.17;1.10;;;;;;;;;;5110838;28;20223;-77
2022/09/06 00:15:06;;;;;;;1.13;1.13;;;;;;;;;;5110143;28;20229;-77
2022/09/06 00:17:34;;;;;;;1.40;1.30;;;;;;;;;;5111007;28;20210;-77
2022/09/06 00:20:00;;;;;;;1.30;1.13;;;;;;;;;;5110690;28;20202;-77
2022/09/06 00:22:27;;;;;;;0.90;0.90;;;;;;;;;;5110397;28;20615;-77
2022/09/06 00:24:54;;;;;;;1.10;0.97;;;;;;;;;;5110517;28;20194;-77
2022/09/06 00:27:21;;;;;;;0.90;0.90;;;;;;;;;;5111107;28;20252;-77
2022/09/06 00:29:47;;;;;;;1.07;1.00;;;;;;;;;;5110317;28;20209;-77
2022/09/06 00:32:16;;;;;;;0.97;0.97;;;;;;;;;;5110705;28;20680;-77
2022/09/06 00:34:42;;;;;;;0.90;0.90;;;;;;;;;;5110394;28;20197;-77
2022/09/06 00:37:09;;;;;;;1.07;1.07;;;;;;;;;;5112023;28;20197;-77
2022/09/06 00:39:36;;;;;;;1.00;1.00;;;;;;;;;;5113762;28;20203;-77
2022/09/06 00:42:03;;;;;;;0.93;0.93;;;;;;;;;;5114683;28;20202;-77
2022/09/06 00:44:30;;;;;;;0.93;0.93;;;;;;;;;;5113869;28;20215;-77
2022/09/06 00:46:56;;;;;;;0.97;0.97;;;;;;;;;;5114220;28;20212;-77
2022/09/06 00:49:27;;;;;;;1.33;1.00;;;;;;;;;;5114266;28;20204;-77
2022/09/06 00:51:56;;;;;;;0.90;0.90;;;;;;;;;;5114473;28;20194;-77
2022/09/06 00:54:23;;;;;;;0.80;0.80;;;;;;;;;;5114177;28;20205;-77
2022/09/06 00:56:50;;;;;;;0.87;0.87;;;;;;;;;;5114175;28;20205;-77
2022/09/06 00:59:17;;;;;;;1.73;1.63;;;;;;;;;;5113949;28;20238;-77
2022/09/06 01:01:44;;;;;;;0.80;0.80;;;;;;;;;;5114090;28;20212;-77
2022/09/06 01:04:11;;;;;;;0.97;0.97;;;;;;;;;;5114266;28;20193;-77
2022/09/06 01:06:45;;;;;;;0.80;0.80;;;;;;;;;;5113832;28;20220;-77
2022/09/06 01:09:20;;;;;;;1.33;1.20;;;;;;;;;;5113776;28;20216;-77
2022/09/06 01:12:01;;;;;;;0.90;0.90;;;;;;;;;;5113600;28;20684;-77
2022/09/06 01:14:40;;;;;;;0.90;0.90;;;;;;;;;;5113693;28;20627;-77
2022/09/06 01:17:11;;;;;;;0.97;0.97;;;;;;;;;;5113806;28;20196;-77
2022/09/06 01:20:15;;;;;;;0.87;0.87;;;;;;;;;;5113387;28;20205;-77
2022/09/06 01:23:16;;;;;;;0.80;0.80;;;;;;;;;;5097342;28;20212;-77
2022/09/06 01:25:53;;;;;;;0.70;0.70;;;;;;;;;;5113795;28;20212;-77
2022/09/06 01:28:30;;;;;;;0.87;0.87;;;;;;;;;;5113485;28;20223;-77
2022/09/06 01:31:03;;;;;;;0.90;0.90;;;;;;;;;;5112328;28;20225;-78
2022/09/06 01:33:33;;;;;;;1.00;1.00;;;;;;;;;;5112574;28;20284;-77
2022/09/06 01:36:03;;;;;;;0.90;0.90;;;;;;;;;;5113733;28;20197;-77
2022/09/06 01:38:30;;;;;;;0.90;0.90;;;;;;;;;;5112637;28;20712;-77
2022/09/06 01:40:56;;;;;;;0.70;0.70;;;;;;;;;;5113439;28;20701;-77
2022/09/06 01:43:27;;;;;;;0.80;0.80;;;;;;;;;;5113269;28;20205;-77
2022/09/06 01:46:01;;;;;;;0.70;0.70;;;;;;;;;;5113401;28;20227;-77
2022/09/06 01:48:38;;;;;;;0.80;0.80;;;;;;;;;;5112919;28;20224;-77
2022/09/06 01:51:12;;;;;;;1.23;1.13;;;;;;;;;;5112865;28;20816;-77
2022/09/06 01:54:02;;;;;;;0.87;0.87;;;;;;;;;;5112251;28;20205;-77
2022/09/06 01:56:34;;;;;;;1.07;0.97;;;;;;;;;;5113351;28;20287;-77
2022/09/06 01:59:16;;;;;;;0.80;0.80;;;;;;;;;;5112819;28;20228;-77
2022/09/06 02:01:48;;;;;;;1.23;1.20;;;;;;;;;;5113148;28;20209;-77
2022/09/06 02:04:18;;;;;;;2.37;1.37;;;;;;;;;;5112965;28;20200;-77
2022/09/06 02:06:47;;;;;;;1.90;1.73;;;;;;;;;;5112873;28;20199;-77
2022/09/06 02:09:17;;;;;;;1.00;1.00;;;;;;;;;;5112980;28;20200;-77
2022/09/06 02:11:47;;;;;;;0.90;0.90;;;;;;;;;;5112789;28;20207;-77
2022/09/06 02:14:20;;;;;;;0.70;0.70;;;;;;;;;;5112760;28;20219;-77
2022/09/06 02:16:47;;;;;;;1.30;1.30;;;;;;;;;;5113167;28;20205;-77
2022/09/06 02:19:18;;;;;;;0.80;0.80;;;;;;;;;;5112241;28;20617;-77
2022/09/06 02:21:46;;;;;;;0.70;0.70;;;;;;;;;;5112459;28;20203;-77
2022/09/06 02:24:17;;;;;;;1.17;1.00;;;;;;;;;;5100043;28;20217;-77
2022/09/06 02:26:44;;;;;;;1.03;1.03;;;;;;;;;;5112642;28;20206;-78
2022/09/06 02:29:11;;;;;;;0.80;0.80;;;;;;;;;;5112256;28;20208;-77
2022/09/06 02:31:42;;;;;;;2.33;1.00;;;;;;;;;;5112246;28;20208;-77
2022/09/06 02:34:09;;;;;;;0.80;0.80;;;;;;;;;;5112668;28;20205;-77
2022/09/06 02:36:36;;;;;;;1.40;1.27;;;;;;;;;;5103195;28;20215;-77
2022/09/06 02:39:03;;;;;;;2.37;1.07;;;;;;;;;;5111453;28;20232;-77
2022/09/06 02:41:30;;;;;;;1.10;1.10;;;;;;;;;;5112231;28;20201;-78
2022/09/06 02:43:57;;;;;;;1.30;1.30;;;;;;;;;;5112358;28;20233;-77
2022/09/06 02:46:24;;;;;;;0.87;0.87;;;;;;;;;;5112224;28;20203;-77
2022/09/06 02:48:52;;;;;;;1.07;1.07;;;;;;;;;;5111844;28;20633;-77
2022/09/06 02:51:19;;;;;;;1.00;1.00;;;;;;;;;;5111921;28;20209;-77
2022/09/06 02:53:46;;;;;;;0.97;0.97;;;;;;;;;;5112116;28;20203;-77
2022/09/06 02:56:13;;;;;;;0.90;0.90;;;;;;;;;;5112281;28;20213;-77
2022/09/06 02:58:40;;;;;;;0.77;0.77;;;;;;;;;;5097190;28;20220;-77
2022/09/06 03:01:06;;;;;;;1.10;1.00;;;;;;;;;;5111120;28;20223;-78
2022/09/06 03:03:33;;;;;;;0.97;0.97;;;;;;;;;;5111682;28;20210;-78
2022/09/06 03:06:01;;;;;;;0.90;0.90;;;;;;;;;;5112021;28;20200;-77
2022/09/06 03:08:32;;;;;;;1.23;1.20;;;;;;;;;;5112015;28;20208;-77
2022/09/06 03:10:59;;;;;;;0.90;0.90;;;;;;;;;;5111580;28;20629;-77
2022/09/06 03:13:26;;;;;;;1.27;1.27;;;;;;;;;;5111848;28;20203;-77
2022/09/06 03:15:54;;;;;;;1.03;1.00;;;;;;;;;;5111311;28;20201;-77
2022/09/06 03:18:21;;;;;;;1.30;1.20;;;;;;;;;;5111205;28;20231;-77
2022/09/06 03:20:49;;;;;;;1.27;1.17;;;;;;;;;;5111493;28;20208;-77
2022/09/06 03:23:17;;;;;;;1.90;1.50;;;;;;;;;;5111225;28;20288;-77
2022/09/06 03:25:44;;;;;;;1.60;1.10;;;;;;;;;;5105784;28;20211;-77
2022/09/06 03:28:11;;;;;;;0.97;0.97;;;;;;;;;;5110214;28;20691;-77
2022/09/06 03:30:38;;;;;;;1.00;1.00;;;;;;;;;;5111287;28;20583;-77
2022/09/06 03:33:05;;;;;;;1.33;1.20;;;;;;;;;;5110946;28;20205;-78
2022/09/06 03:35:32;;;;;;;1.13;1.00;;;;;;;;;;5111235;28;20205;-77
2022/09/06 03:37:59;;;;;;;1.20;1.20;;;;;;;;;;5111302;28;20196;-77
2022/09/06 03:40:27;;;;;;;0.97;0.97;;;;;;;;;;5110613;28;20207;-77
2022/09/06 03:42:54;;;;;;;1.10;1.10;;;;;;;;;;5110860;28;20257;-77
2022/09/06 03:45:20;;;;;;;0.97;0.97;;;;;;;;;;5111064;28;20201;-77
2022/09/06 03:47:47;;;;;;;0.83;0.80;;;;;;;;;;5111016;28;20197;-77
2022/09/06 03:50:14;;;;;;;0.90;0.90;;;;;;;;;;5110865;28;20200;-77
2022/09/06 03:52:41;;;;;;;1.03;1.03;;;;;;;;;;5111089;28;20217;-78
2022/09/06 03:55:08;;;;;;;0.90;0.90;;;;;;;;;;5110706;28;20206;-78
2022/09/06 03:57:36;;;;;;;1.40;1.30;;;;;;;;;;5111233;28;20205;-78
2022/09/06 04:00:05;;;;;;;0.93;0.93;;;;;;;;;;5110477;28;20299;-78
2022/09/06 04:02:31;;;;;;;1.10;1.00;;;;;;;;;;5111083;28;20216;-78
2022/09/06 04:04:58;;;;;;;1.33;1.33;;;;;;;;;;5110775;28;20665;-78
2022/09/06 04:07:25;;;;;;;1.23;1.13;;;;;;;;;;5110431;28;20688;-78
2022/09/06 04:09:51;;;;;;;0.90;0.90;;;;;;;;;;5110733;28;20679;-78
2022/09/06 04:12:18;;;;;;;1.17;1.17;;;;;;;;;;5109345;28;20205;-78
2022/09/06 04:14:46;;;;;;;0.90;0.90;;;;;;;;;;5110222;28;20199;-78
2022/09/06 04:17:13;;;;;;;1.40;1.30;;;;;;;;;;5110492;28;20211;-77
2022/09/06 04:19:40;;;;;;;0.93;0.83;;;;;;;;;;5109716;28;20323;-78
2022/09/06 04:22:07;;;;;;;1.23;1.20;;;;;;;;;;5110548;28;20281;-77
2022/09/06 04:24:33;;;;;;;0.90;0.90;;;;;;;;;;5110336;28;20579;-77
2022/09/06 04:27:00;;;;;;;1.20;1.10;;;;;;;;;;5110654;28;20595;-77
2022/09/06 04:29:27;;;;;;;0.80;0.80;;;;;;;;;;5105210;28;20679;-77
2022/09/06 04:31:55;;;;;;;1.23;1.23;;;;;;;;;;5110569;28;20667;-77
2022/09/06 04:34:22;;;;;;;0.70;0.70;;;;;;;;;;5110016;28;20216;-78
2022/09/06 04:36:48;;;;;;;0.80;0.80;;;;;;;;;;5110253;28;20219;-77
2022/09/06 04:39:15;;;;;;;0.90;0.90;;;;;;;;;;5101491;28;20231;-77
2022/09/06 04:41:42;;;;;;;1.00;1.00;;;;;;;;;;5091657;28;20207;-77
2022/09/06 04:44:09;;;;;;;1.20;1.10;;;;;;;;;;5094313;28;20208;-77
2022/09/06 04:46:36;;;;;;;1.07;0.97;;;;;;;;;;5091816;28;20198;-77
2022/09/06 04:49:04;;;;;;;0.97;0.97;;;;;;;;;;5097527;28;20303;-77
2022/09/06 04:51:31;;;;;;;1.20;1.13;;;;;;;;;;5110279;28;20204;-77
2022/09/06 04:53:58;;;;;;;0.83;0.83;;;;;;;;;;5109768;28;20236;-77
2022/09/06 04:56:26;;;;;;;1.00;0.90;;;;;;;;;;5100048;28;20207;-78
2022/09/06 04:58:54;;;;;;;0.87;0.87;;;;;;;;;;5101641;28;20608;-77
2022/09/06 05:01:21;;;;;;;1.27;1.10;;;;;;;;;;5109536;28;20589;-77
2022/09/06 05:03:48;;;;;;;0.97;0.97;;;;;;;;;;5110379;28;20201;-77
2022/09/06 05:06:20;;;;;;;1.30;1.23;;;;;;;;;;5110175;28;20222;-76
2022/09/06 05:08:47;;;;;;;0.80;0.80;;;;;;;;;;5110183;28;20675;-76
2022/09/06 05:11:14;;;;;;;0.80;0.80;;;;;;;;;;5109426;28;20196;-76
2022/09/06 05:13:41;;;;;;;1.00;1.00;;;;;;;;;;5100757;28;20200;-76
2022/09/06 05:16:08;;;;;;;2.00;1.30;;;;;;;;;;5109977;28;20192;-76
2022/09/06 05:18:36;;;;;;;1.50;1.40;;;;;;;;;;5108794;28;20247;-76
2022/09/06 05:21:02;;;;;;;1.43;1.30;;;;;;;;;;5101618;28;20201;-75
2022/09/06 05:23:31;;;;;;;1.03;1.00;;;;;;;;;;5097508;28;20208;-75
2022/09/06 05:25:57;;;;;;;1.13;1.13;;;;;;;;;;5096586;28;20201;-78
2022/09/06 05:28:24;;;;;;;1.07;1.07;;;;;;;;;;5107010;28;20204;-77
2022/09/06 05:30:51;;;;;;;1.37;1.37;;;;;;;;;;5113143;28;20226;-84
2022/09/06 05:33:20;;;;;;;1.83;1.67;;;;;;;;;;5111787;28;20221;-86
2022/09/06 05:35:48;;;;;;;1.77;1.67;;;;;;;;;;5102735;28;20702;-86
2022/09/06 05:38:15;;;;;;;1.43;1.33;;;;;;;;;;5094627;28;20686;-83
2022/09/06 05:40:44;;;;;;;1.27;1.20;;;;;;;;;;5095674;28;20228;-87
2022/09/06 05:43:11;;;;;;;1.23;1.23;;;;;;;;;;5113343;28;20212;-85
2022/09/06 05:45:38;;;;;;;1.37;1.20;;;;;;;;;;5114116;28;20257;-86
2022/09/06 05:48:05;;;;;;;1.30;1.30;;;;;;;;;;5113583;28;20195;-86
2022/09/06 05:50:32;;;;;;;0.80;0.80;;;;;;;;;;5094565;28;20201;-85
2022/09/06 05:52:59;;;;;;;1.37;1.27;;;;;;;;;;5077136;28;20738;-86
2022/09/06 05:55:26;;;;;;;0.90;0.90;;;;;;;;;;5094994;28;20200;-86
2022/09/06 05:57:55;;;;;;;0.97;0.97;;;;;;;;;;5093155;28;20252;-88
2022/09/06 06:00:22;;;;;;;1.30;1.20;;;;;;;;;;5081984;28;20256;-79
2022/09/06 06:02:49;;;;;;;1.23;1.13;;;;;;;;;;5112961;28;20207;-76
2022/09/06 06:05:16;;;;;;;1.13;1.13;;;;;;;;;;5105234;28;20204;-77
2022/09/06 06:07:43;;;;;;;0.80;0.80;;;;;;;;;;5109384;28;20199;-79
2022/09/06 06:10:10;;;;;;;1.10;1.00;;;;;;;;;;5112578;28;20197;-79
2022/09/06 06:12:37;;;;;;;0.97;0.97;;;;;;;;;;5112444;28;20209;-80
2022/09/06 06:15:06;;;;;;;1.30;1.20;;;;;;;;;;5111318;28;20691;-79
2022/09/06 06:17:33;;;;;;;4.77;1.50;;;;;;;;;;5094204;28;20208;-75
2022/09/06 06:20:00;;;;;;;1.13;1.13;;;;;;;;;;5099092;28;20242;-82
2022/09/06 06:22:27;;;;;;;1.47;1.37;;;;;;;;;;5110596;28;20203;-82
2022/09/06 06:24:54;;;;;;;1.80;0.90;;;;;;;;;;5108985;28;20217;-83
2022/09/06 06:27:21;;;;;;;0.90;0.90;;;;;;;;;;5111835;28;20215;-83
2022/09/06 06:29:49;;;;;;;0.70;0.70;;;;;;;;;;5111814;28;20203;-83
2022/09/06 06:32:18;;;;;;;1.27;1.17;;;;;;;;;;5094020;28;20214;-83
2022/09/06 06:34:45;;;;;;;1.00;1.00;;;;;;;;;;5112244;28;20199;-83
2022/09/06 06:37:12;;;;;;;2.97;1.27;;;;;;;;;;5112010;28;20198;-84
2022/09/06 06:39:40;;;;;;;0.90;0.90;;;;;;;;;;5093522;28;20234;-82
2022/09/06 06:42:07;;;;;;;1.10;1.00;;;;;;;;;;5094451;28;20210;-82
2022/09/06 06:44:35;;;;;;;1.00;1.00;;;;;;;;;;5093791;28;20208;-83
2022/09/06 06:47:02;;;;;;;1.43;1.33;;;;;;;;;;5110845;28;20285;-82
2022/09/06 06:49:31;;;;;;;1.13;1.10;;;;;;;;;;5093819;28;20203;-83
2022/09/06 06:51:58;;;;;;;1.33;1.23;;;;;;;;;;5097396;28;20312;-83
2022/09/06 06:54:25;;;;;;;1.00;1.00;;;;;;;;;;5111433;28;20206;-83
2022/09/06 06:56:52;;;;;;;1.23;1.13;;;;;;;;;;5111636;28;20203;-83
2022/09/06 06:59:20;;;;;;;1.10;1.00;;;;;;;;;;5092790;28;20243;-83
2022/09/06 07:01:49;;;;;;;1.30;1.20;;;;;;;;;;5093840;28;20210;-83
2022/09/06 07:04:16;;;;;;;1.47;1.37;;;;;;;;;;5111639;28;20203;-83
2022/09/06 07:06:49;;;;;;;0.87;0.87;;;;;;;;;;5092085;28;20204;-83
2022/09/06 07:09:17;;;;;;;1.10;1.10;;;;;;;;;;5111540;28;20677;-83
2022/09/06 07:11:44;;;;;;;1.30;1.20;;;;;;;;;;5111407;28;20222;-83
2022/09/06 07:14:11;;;;;;;1.37;1.10;;;;;;;;;;5093256;28;20282;-82
2022/09/06 07:16:38;;;;;;;1.30;1.20;;;;;;;;;;5093413;28;20203;-82
2022/09/06 07:19:05;;;;;;;1.57;1.37;;;;;;;;;;5092545;28;20196;-82
2022/09/06 07:21:32;;;;;;;1.20;1.20;;;;;;;;;;5111105;28;20207;-80
2022/09/06 07:24:00;;;;;;;1.37;1.27;;;;;;;;;;5111712;28;20199;-80
2022/09/06 07:26:28;;;;;;;0.90;0.90;;;;;;;;;;5096709;28;20197;-81
2022/09/06 07:28:55;;;;;;;1.33;1.03;;;;;;;;;;5103037;28;20191;-85
2022/09/06 07:31:22;;;;;;;1.10;1.10;;;;;;;;;;5102628;28;20245;-84
2022/09/06 07:33:50;;;;;;;1.40;1.30;;;;;;;;;;5111298;28;20670;-86
2022/09/06 07:36:17;;;;;;;1.47;1.37;;;;;;;;;;5100848;28;20204;-86
2022/09/06 07:38:48;;;;;;;1.23;1.17;;;;;;;;;;5063322;28;20697;-84
2022/09/06 07:41:17;;;;;;;2.10;1.90;;;;;;;;;;5110172;28;20609;-84
2022/09/06 07:43:45;;;;;;;1.83;1.73;;;;;;;;;;5109515;28;20195;-85
2022/09/06 07:46:13;;;;;;;1.23;1.13;;;;;;;;;;5092955;28;20211;-84
2022/09/06 07:48:41;;;;;;;1.13;1.13;;;;;;;;;;5110309;28;20589;-85
2022/09/06 07:51:10;;;;;;;1.40;1.33;;;;;;;;;;5111548;28;20211;-84
2022/09/06 07:53:38;;;;;;;0.90;0.90;;;;;;;;;;5110921;28;20195;-85
2022/09/06 07:56:06;;;;;;;1.33;1.30;;;;;;;;;;5110744;28;20693;-86
2022/09/06 07:58:35;;;;;;;1.00;1.00;;;;;;;;;;5110876;28;20195;-85
2022/09/06 08:01:15;;;;;;;1.10;1.10;;;;;;;;;;5111161;28;20256;-84
2022/09/06 08:03:43;;;;;;;1.40;1.30;;;;;;;;;;5110878;28;20207;-84
2022/09/06 08:06:10;;;;;;;1.43;1.33;;;;;;;;;;5110129;28;20211;-85
2022/09/06 08:08:37;;;;;;;1.17;1.17;;;;;;;;;;5110850;28;20203;-85
2022/09/06 08:11:06;;;;;;;1.80;1.70;;;;;;;;;;5110283;28;20196;-85
2022/09/06 08:13:34;;;;;;;1.47;1.37;;;;;;;;;;5110786;28;20204;-85
2022/09/06 08:16:02;;;;;;;1.57;1.47;;;;;;;;;;5110686;28;20214;-85
2022/09/06 08:18:29;;;;;;;2.10;1.90;;;;;;;;;;5109995;28;20199;-84
2022/09/06 08:20:56;;;;;;;2.70;1.47;;;;;;;;;;5110122;28;20655;-84
2022/09/06 08:23:24;;;;;;;1.60;1.50;;;;;;;;;;5110329;28;20211;-85
2022/09/06 08:25:58;;;;;;;2.43;1.80;;;;;;;;;;5110577;28;20199;-85
2022/09/06 08:28:25;;;;;;;2.10;2.00;;;;;;;;;;5110003;28;20678;-84
2022/09/06 08:30:53;;;;;;;1.90;1.80;;;;;;;;;;5110343;28;20200;-85
2022/09/06 08:33:24;;;;;;;1.53;1.43;;;;;;;;;;5096047;28;20203;-85
2022/09/06 08:35:57;;;;;;;1.70;1.60;;;;;;;;;;5110603;28;20205;-84
2022/09/06 08:38:24;;;;;;;1.60;1.50;;;;;;;;;;5110575;28;20203;-86
2022/09/06 08:40:51;;;;;;;1.43;1.37;;;;;;;;;;5110184;28;20230;-84
2022/09/06 08:43:19;;;;;;;2.03;1.60;;;;;;;;;;5110139;28;20682;-86
2022/09/06 08:45:49;;;;;;;1.50;1.40;;;;;;;;;;5110131;28;20253;-85
2022/09/06 08:48:17;;;;;;;1.50;1.30;;;;;;;;;;5110345;28;20232;-85
2022/09/06 08:50:50;;;;;;;1.57;1.40;;;;;;;;;;5110755;28;20200;-86
2022/09/06 08:53:19;;;;;;;1.50;1.40;;;;;;;;;;5110345;28;20204;-86
2022/09/06 08:55:49;;;;;;;1.53;1.43;;;;;;;;;;5109494;28;20206;-87
2022/09/06 08:58:36;;;;;;;1.80;1.70;;;;;;;;;;5110310;28;20598;-86
2022/09/06 09:01:04;;;;;;;1.97;1.63;;;;;;;;;;5114244;28;20906;-85
2022/09/06 09:03:36;;;;;;;1.47;1.37;;;;;;;;;;5114431;28;20204;-88
2022/09/06 09:06:04;;;;;;;2.47;2.27;;;;;;;;;;5113947;28;20248;-87
2022/09/06 09:08:37;;;;;;;1.60;1.50;;;;;;;;;;5114120;28;20286;-85
2022/09/06 09:11:06;;;;;;;1.20;1.20;;;;;;;;;;5111329;28;20203;-88
2022/09/06 09:13:35;;;;;;;1.70;1.60;;;;;;;;;;5097010;28;20195;-89
2022/09/06 09:16:03;;;;;;;1.47;1.37;;;;;;;;;;5096552;28;20210;-90
2022/09/06 09:18:33;;;;;;;1.50;1.37;;;;;;;;;;5095711;28;20207;-88
2022/09/06 09:21:00;;;;;;;2.10;1.90;;;;;;;;;;5113752;28;20603;-87
2022/09/06 09:23:29;;;;;;;1.40;1.30;;;;;;;;;;5095874;28;20203;-87
2022/09/06 09:26:02;;;;;;;1.73;1.50;;;;;;;;;;5114256;28;20701;-87
2022/09/06 09:28:30;;;;;;;1.30;1.30;;;;;;;;;;5115176;28;20227;-89
2022/09/06 09:30:57;;;;;;;1.60;1.50;;;;;;;;;;5114225;28;20203;-89
2022/09/06 09:33:28;;;;;;;1.50;1.40;;;;;;;;;;5113578;28;20204;-91
2022/09/06 09:35:59;;;;;;;1.43;1.23;;;;;;;;;;5108176;28;20699;-89
2022/09/06 09:38:27;;;;;;;4.47;2.50;;;;;;;;;;5104152;28;20207;-88
2022/09/06 09:40:55;;;;;;;1.47;1.37;;;;;;;;;;5095322;28;20227;-90
2022/09/06 09:43:25;;;;;;;1.97;1.37;;;;;;;;;;5112701;28;20763;-91
2022/09/06 09:46:15;;;;;;;1.10;1.10;;;;;;;;;;5113222;28;20207;-92
2022/09/06 09:48:48;;;;;;;1.47;1.37;;;;;;;;;;5114306;28;20207;-95
2022/09/06 09:51:22;;;;;;;1.33;1.33;;;;;;;;;;5112313;28;20195;-95
2022/09/06 09:53:54;;;;;;;1.43;1.00;;;;;;;;;;5116862;28;20203;-95
2022/09/06 09:59:08;;;;;;;1.47;1.37;;;;;;;;;;5056537;28;20221;-96
2022/09/06 10:01:38;;;;;;;1.27;1.20;;;;;;;;;;5054163;28;20218;-96
2022/09/06 10:04:07;;;;;;;1.37;1.27;;;;;;;;;;5049775;28;20198;-83
2022/09/06 10:06:36;;;;;;;1.00;1.00;;;;;;;;;;5014489;28;20235;-81
2022/09/06 10:09:18;;;;;;;1.67;1.37;;;;;;;;;;5014692;28;20202;-79
2022/09/06 10:11:54;;;;;;;1.10;1.10;;;;;;;;;;5012379;28;20275;-81
2022/09/06 10:14:27;;;;;;;1.60;1.40;;;;;;;;;;5029575;28;20302;-84
2022/09/06 10:16:54;;;;;;;2.73;1.87;;;;;;;;;;5032217;28;20213;-82
2022/09/06 10:19:43;;;;;;;1.30;1.30;;;;;;;;;;5018315;28;20234;-83
2022/09/06 10:22:26;;;;;;;2.27;1.40;;;;;;;;;;5045493;28;20700;-82
2022/09/06 10:25:06;;;;;;;1.93;1.83;;;;;;;;;;5044742;28;20677;-82
2022/09/06 10:27:33;;;;;;;1.70;1.60;;;;;;;;;;5051606;28;20204;-82
2022/09/06 10:30:03;;;;;;;1.50;1.40;;;;;;;;;;5046415;28;20206;-84
2022/09/06 10:32:40;;;;;;;1.27;1.20;;;;;;;;;;5049727;28;20206;-84
2022/09/06 10:35:15;;;;;;;2.03;1.30;;;;;;;;;;5037378;28;20198;-83
2022/09/06 10:37:48;;;;;;;1.60;1.50;;;;;;;;;;5044385;28;20197;-84
2022/09/06 10:40:23;;;;;;;1.37;1.30;;;;;;;;;;5041509;28;20299;-84
2022/09/06 10:42:52;;;;;;;1.57;1.47;;;;;;;;;;5049479;28;20707;-83
2022/09/06 10:45:33;;;;;;;1.67;1.57;;;;;;;;;;5039942;28;20210;-84
2022/09/06 10:48:04;;;;;;;1.20;1.17;;;;;;;;;;5044258;28;20206;-82
2022/09/06 10:50:43;;;;;;;1.43;1.40;;;;;;;;;;5051643;28;20205;-82
2022/09/06 10:53:18;;;;;;;1.60;1.50;;;;;;;;;;5042748;28;20197;-83
2022/09/06 10:55:46;;;;;;;1.30;1.20;;;;;;;;;;5037023;28;20665;-84
2022/09/06 10:58:24;;;;;;;1.57;1.37;;;;;;;;;;5041698;28;20226;-82
2022/09/06 11:00:51;;;;;;;1.17;1.17;;;;;;;;;;5050086;28;20217;-82
2022/09/06 11:03:24;;;;;;;1.37;1.37;;;;;;;;;;5051100;28;20204;-81
2022/09/06 11:05:53;;;;;;;1.00;1.00;;;;;;;;;;5038273;28;20206;-82
2022/09/06 11:08:25;;;;;;;1.47;1.37;;;;;;;;;;5035391;28;20758;-81
2022/09/06 11:10:54;;;;;;;1.50;1.40;;;;;;;;;;5036878;28;20201;-82
2022/09/06 11:13:22;;;;;;;1.30;1.20;;;;;;;;;;5051028;28;20292;-81
2022/09/06 11:15:53;;;;;;;1.20;1.20;;;;;;;;;;5026630;28;20199;-79
2022/09/06 11:18:25;;;;;;;1.50;1.40;;;;;;;;;;5043937;28;20202;-79
2022/09/06 11:21:05;;;;;;;1.50;1.40;;;;;;;;;;5050496;28;20222;-78
2022/09/06 11:23:48;;;;;;;1.17;1.13;;;;;;;;;;5049144;28;20205;-79
2022/09/06 11:26:33;;;;;;;1.50;1.40;;;;;;;;;;5032894;28;20238;-84
2022/09/06 11:29:01;;;;;;;1.37;1.20;;;;;;;;;;5044193;28;20197;-80
2022/09/06 11:31:30;;;;;;;6.23;3.70;;;;;;;;;;5028006;28;20806;-81
2022/09/06 11:34:08;;;;;;;3.03;1.97;;;;;;;;;;5045752;28;20225;-79
2022/09/06 11:36:37;;;;;;;1.60;1.50;;;;;;;;;;5050559;28;20594;-79
2022/09/06 11:39:08;;;;;;;1.23;1.20;;;;;;;;;;5049809;28;20198;-81
2022/09/06 11:41:37;;;;;;;1.37;1.27;;;;;;;;;;5032096;28;20218;-83
2022/09/06 11:44:05;;;;;;;1.60;1.50;;;;;;;;;;5041466;28;20208;-81
2022/09/06 11:47:00;;;;;;;1.23;1.20;;;;;;;;;;5050439;28;20227;-78
2022/09/06 11:49:40;;;;;;;1.10;1.10;;;;;;;;;;5034185;28;20191;-79
2022/09/06 11:52:58;;;;;;;1.57;1.47;;;;;;;;;;5042141;28;20205;-79
2022/09/06 11:55:34;;;;;;;1.07;1.07;;;;;;;;;;5021114;28;20263;-76
2022/09/06 11:58:02;;;;;;;1.20;1.10;;;;;;;;;;5010715;28;20223;-76
2022/09/06 12:00:29;;;;;;;1.40;1.33;;;;;;;;;;5029377;28;20361;-76
2022/09/06 12:02:56;;;;;;;1.50;1.40;;;;;;;;;;5050001;28;20252;-77
2022/09/06 12:05:29;;;;;;;1.40;1.30;;;;;;;;;;5018758;28;20790;-78
2022/09/06 12:08:32;;;;;;;1.50;1.40;;;;;;;;;;5043256;28;20208;-78
2022/09/06 12:11:26;;;;;;;1.47;1.37;;;;;;;;;;5030976;28;20209;-78
2022/09/06 12:14:02;;;;;;;1.10;1.10;;;;;;;;;;5041975;28;20201;-78
2022/09/06 12:17:26;;;;;;;1.23;1.17;;;;;;;;;;5049625;28;20209;-78
2022/09/06 12:19:56;;;;;;;1.27;1.17;;;;;;;;;;5050051;28;20234;-77
2022/09/06 12:23:03;;;;;;;1.43;1.33;;;;;;;;;;5049836;28;20261;-76
2022/09/06 12:25:55;;;;;;;1.43;1.33;;;;;;;;;;5049724;28;20259;-77
2022/09/06 12:28:27;;;;;;;1.47;1.37;;;;;;;;;;5023407;28;20211;-77
2022/09/06 12:30:54;;;;;;;1.63;1.53;;;;;;;;;;5022884;28;20595;-77
2022/09/06 12:33:24;;;;;;;1.77;1.67;;;;;;;;;;5051934;28;20201;-77
2022/09/06 12:35:51;;;;;;;1.37;1.27;;;;;;;;;;5053767;28;20194;-77
2022/09/06 12:38:23;;;;;;;3.03;1.48;;;;;;;;;;5053694;28;20202;-77
2022/09/06 12:40:55;;;;;;;1.60;1.50;;;;;;;;;;5053668;28;20229;-77
2022/09/06 12:43:22;;;;;;;1.23;1.20;;;;;;;;;;5034941;28;20302;-78
2022/09/06 12:45:51;;;;;;;1.37;1.27;;;;;;;;;;5032712;28;20198;-77
2022/09/06 12:48:26;;;;;;;1.97;1.20;;;;;;;;;;5032770;28;20213;-78
2022/09/06 12:51:02;;;;;;;1.40;1.30;;;;;;;;;;5033229;28;20747;-78
2022/09/06 12:53:30;;;;;;;1.93;1.60;;;;;;;;;;5033347;28;20672;-78
2022/09/06 12:56:05;;;;;;;2.53;1.43;;;;;;;;;;5033260;28;20206;-78
2022/09/06 12:58:32;;;;;;;2.17;1.63;;;;;;;;;;5038946;28;20606;-77
2022/09/06 13:01:05;;;;;;;1.40;1.30;;;;;;;;;;5053876;28;20229;-77
2022/09/06 13:03:36;;;;;;;1.30;1.20;;;;;;;;;;5052963;28;20205;-78
2022/09/06 13:06:05;;;;;;;1.43;1.20;;;;;;;;;;5053911;28;20220;-77
2022/09/06 13:08:36;;;;;;;1.23;1.13;;;;;;;;;;5053420;28;20206;-77
2022/09/06 13:11:04;;;;;;;2.00;1.60;;;;;;;;;;5053609;28;20229;-77
2022/09/06 13:13:31;;;;;;;1.33;1.23;;;;;;;;;;5053232;28;20213;-78
2022/09/06 13:15:57;;;;;;;1.93;1.83;;;;;;;;;;5053082;28;20597;-78
2022/09/06 13:18:34;;;;;;;1.57;1.40;;;;;;;;;;5051828;28;20618;-77
2022/09/06 13:21:02;;;;;;;1.23;1.20;;;;;;;;;;5029961;28;20206;-77
2022/09/06 13:23:30;;;;;;;1.20;1.20;;;;;;;;;;5053106;28;20213;-77
2022/09/06 13:25:57;;;;;;;1.50;1.40;;;;;;;;;;5045097;28;20203;-77
2022/09/06 13:28:26;;;;;;;1.13;1.10;;;;;;;;;;5028295;28;20585;-77
2022/09/06 13:31:06;;;;;;;1.77;1.67;;;;;;;;;;5027118;28;20763;-78
2022/09/06 13:33:36;;;;;;;1.00;1.00;;;;;;;;;;5012241;28;20196;-76
2022/09/06 13:36:16;;;;;;;1.40;1.30;;;;;;;;;;5029564;28;20215;-76
2022/09/06 13:38:44;;;;;;;1.30;1.23;;;;;;;;;;5033020;28;20198;-76
2022/09/06 13:41:33;;;;;;;1.20;1.20;;;;;;;;;;5021342;28;20231;-76
2022/09/06 13:44:02;;;;;;;1.43;1.33;;;;;;;;;;5030118;28;20190;-76
2022/09/06 13:46:29;;;;;;;1.13;1.03;;;;;;;;;;5052955;28;20299;-76
2022/09/06 13:48:57;;;;;;;1.20;1.10;;;;;;;;;;5038065;28;20637;-76
2022/09/06 13:51:25;;;;;;;1.73;1.63;;;;;;;;;;5052774;28;20221;-76
2022/09/06 13:53:52;;;;;;;1.23;1.20;;;;;;;;;;5034648;28;20202;-76
2022/09/06 13:56:19;;;;;;;1.27;1.17;;;;;;;;;;5040282;28;20640;-76
2022/09/06 13:58:46;;;;;;;1.10;1.10;;;;;;;;;;5048061;28;20283;-76
2022/09/06 14:01:13;;;;;;;1.53;1.43;;;;;;;;;;5040270;28;20202;-76
2022/09/06 14:03:41;;;;;;;3.20;3.00;;;;;;;;;;5048390;28;20214;-76
2022/09/06 14:06:10;;;;;;;1.23;1.20;;;;;;;;;;5020333;28;20205;-76
2022/09/06 14:08:38;;;;;;;1.73;1.63;;;;;;;;;;5051541;28;20681;-76
2022/09/06 14:11:05;;;;;;;2.00;1.90;;;;;;;;;;5049711;28;20948;-76
2022/09/06 14:13:32;;;;;;;1.47;1.37;;;;;;;;;;5032678;28;20264;-76
2022/09/06 14:15:59;;;;;;;1.47;1.37;;;;;;;;;;5049128;28;20256;-77
2022/09/06 14:18:25;;;;;;;1.50;1.40;;;;;;;;;;5025507;28;20199;-76
2022/09/06 14:20:53;;;;;;;1.17;1.07;;;;;;;;;;5029731;28;20251;-76
2022/09/06 14:23:23;;;;;;;2.07;1.40;;;;;;;;;;5038155;28;20229;-76
2022/09/06 14:25:50;;;;;;;1.40;1.30;;;;;;;;;;5046448;28;20229;-76
2022/09/06 14:28:17;;;;;;;1.40;1.30;;;;;;;;;;5051878;28;20202;-76
2022/09/06 14:30:44;;;;;;;2.10;1.10;;;;;;;;;;5006991;28;20707;-76
2022/09/06 14:33:11;;;;;;;1.93;1.83;;;;;;;;;;5033594;28;20207;-76
2022/09/06 14:35:39;;;;;;;1.53;1.43;;;;;;;;;;5018745;28;20252;-76
2022/09/06 14:38:07;;;;;;;1.80;1.40;;;;;;;;;;5048407;28;20260;-79
2022/09/06 14:40:37;;;;;;;1.40;1.30;;;;;;;;;;5051316;28;20940;-79
2022/09/06 14:43:04;;;;;;;1.67;1.53;;;;;;;;;;5033849;28;20229;-79
2022/09/06 14:45:34;;;;;;;1.77;1.67;;;;;;;;;;5033573;28;20636;-79
2022/09/06 14:48:01;;;;;;;1.23;1.20;;;;;;;;;;5048571;28;20210;-79
2022/09/06 14:50:28;;;;;;;1.60;1.50;;;;;;;;;;5050904;28;20209;-79
2022/09/06 14:52:55;;;;;;;1.33;1.27;;;;;;;;;;5051016;28;20272;-79
2022/09/06 14:55:22;;;;;;;1.40;1.30;;;;;;;;;;5019777;28;20198;-79
2022/09/06 14:57:51;;;;;;;1.40;1.30;;;;;;;;;;5051307;28;20236;-79
2022/09/06 15:00:18;;;;;;;1.37;1.33;;;;;;;;;;5032833;28;20747;-79
2022/09/06 15:02:45;;;;;;;1.37;1.27;;;;;;;;;;5017231;28;20221;-78